Flight Track Log - Related Links

Times and Time Zones

All times are in EDT time to prevent confusion due to time zone crossing. See the N488PG flight status page for this flight to view local times or setup timezone preferences in your user account.

Time Position Orientation Groundspeed Altitude Reporting Facility
EDT Latitude Longitude Course Direction KTS MPH feet Rate Location/Type
Tue 12:06:09 PM 46.0636 -88.6619 167° South 175 201 4,500  Level Minneapolis Center
Tue 12:07:10 PM 46.0133 -88.6450 167° South 180 207 6,200 1,707 Climbing Minneapolis Center
Tue 12:08:12 PM 45.9619 -88.6272 166° South 186 214 8,000 1,645 Climbing Minneapolis Center
Tue 12:09:14 PM 45.9089 -88.6083 166° South 193 222 9,600 1,548 Climbing Minneapolis Center
Tue 12:10:16 PM 45.8539 -88.5894 167° South 199 229 11,200 1,597 Climbing Minneapolis Center
Tue 12:11:18 PM 45.7964 -88.5694 166° South 208 239 12,900 1,500 Climbing Minneapolis Center
Tue 12:12:20 PM 45.7414 -88.5514 167° South 204 235 14,300 1,016 Climbing Minneapolis Center
Tue 12:13:22 PM 45.6633 -88.5239 166° South 239 275 15,000 309 Climbing Minneapolis Center
Tue 12:14:36 PM 45.5908 -88.4997 167° South 264 304 15,000 -88 Level Minneapolis Center
Tue 12:15:38 PM 45.4989 -88.4686 167° South 283 326 14,800 -387 Descending Minneapolis Center
Tue 12:16:40 PM 45.4156 -88.4400 166° South 303 349 14,200 -387 Descending Minneapolis Center
Tue 12:17:42 PM 45.3306 -88.4128 167° South 311 358 14,000 -145 Descending Minneapolis Center
Tue 12:18:44 PM 45.2433 -88.3831 167° South 305 351 13,900 -441 Descending Minneapolis Center
Tue 12:19:58 PM 45.1594 -88.3536 166° South 309 356 13,000 -926 Descending Minneapolis Center
Tue 12:21:00 PM 45.0536 -88.3183 167° South 324 373 11,800 -1,113 Descending Minneapolis Center
Tue 12:22:02 PM 44.9542 -88.2842 166° South 322 371 10,700 -1,113 Descending Minneapolis Center
Tue 12:23:04 PM 44.8675 -88.2564 167° South 307 353 9,500 -1,306 Descending Minneapolis Center
Tue 12:24:06 PM 44.7875 -88.2308 167° South 298 343 8,000 -1,403 Descending Minneapolis Center
Tue 12:25:08 PM 44.7144 -88.2025 165° South 288 331 6,600 -1,500 Descending Minneapolis Center
Tue 12:26:10 PM 44.6417 -88.1778 166° South 274 315 4,900 -1,659 Descending Minneapolis Center
Tue 12:27:11 PM 44.5661 -88.1258 154° Southeast 262 302 3,200 -1,171 Descending Minneapolis Center
Tue 12:28:13 PM 44.5150 -88.0847 150° Southeast 250 288 2,500 -677 Descending Minneapolis Center
Tue 12:30:00 PM 44.4833 -88.1167 160° South  Level FlightAware Approximate
Tue 12:37:00 PM 44.4846 -88.1297 160° South  Level Estimated

Login

Don't have an account? Register now (free) for customized features, flight alerts, and more!